createdAt,value
2023-04-16T00:01:08.532Z,7.8
2023-04-16T00:03:56.563Z,7.8
2023-04-16T00:06:44.726Z,7.8
2023-04-16T00:09:32.264Z,7.8
2023-04-16T00:12:20.045Z,7.8
2023-04-16T00:15:07.740Z,7.8
2023-04-16T00:17:55.646Z,7.8
2023-04-16T00:20:43.478Z,7.8
2023-04-16T00:23:31.182Z,7.8
2023-04-16T00:26:18.699Z,7.8
2023-04-16T00:29:06.331Z,7.8
2023-04-16T00:31:54.227Z,7.8
2023-04-16T00:34:42.081Z,7.8
2023-04-16T00:37:29.795Z,7.8
2023-04-16T00:40:17.397Z,7.8
2023-04-16T00:43:04.949Z,7.8
2023-04-16T00:45:52.859Z,7.8
2023-04-16T00:48:40.614Z,7.7
2023-04-16T00:51:28.371Z,7.7
2023-04-16T00:54:16.124Z,7.7
2023-04-16T00:57:03.806Z,7.7
2023-04-16T00:59:51.453Z,7.8
2023-04-16T01:02:39.451Z,7.7
2023-04-16T01:05:27.571Z,7.7
2023-04-16T01:08:15.283Z,7.8
2023-04-16T01:11:02.990Z,7.8
2023-04-16T01:13:50.712Z,7.8
2023-04-16T01:16:38.396Z,7.8
2023-04-16T01:19:26.079Z,7.8
2023-04-16T01:22:13.744Z,7.8
2023-04-16T01:25:01.510Z,7.8
2023-04-16T01:27:49.219Z,7.7
2023-04-16T01:30:36.954Z,7.7
2023-04-16T01:33:24.739Z,7.7
2023-04-16T01:36:12.468Z,7.7
2023-04-16T01:39:00.087Z,7.7
2023-04-16T01:41:47.912Z,7.7
2023-04-16T01:44:35.614Z,7.7
2023-04-16T01:47:23.461Z,7.7
2023-04-16T01:50:11.240Z,7.7
2023-04-16T01:52:59.016Z,7.6
2023-04-16T01:55:46.579Z,7.7
2023-04-16T01:58:34.337Z,7.6
2023-04-16T02:01:22.193Z,7.6
2023-04-16T02:04:10.631Z,7.6
2023-04-16T02:06:58.652Z,7.6
2023-04-16T02:09:46.380Z,7.6
2023-04-16T02:12:34.117Z,7.6
2023-04-16T02:15:21.968Z,7.6
2023-04-16T02:18:09.723Z,7.6
2023-04-16T02:20:57.354Z,7.6
2023-04-16T02:23:45.093Z,7.6
2023-04-16T02:26:32.720Z,7.6
2023-04-16T02:29:20.343Z,7.6
2023-04-16T02:32:08.446Z,7.6
2023-04-16T02:34:56.525Z,7.6
2023-04-16T02:37:44.261Z,7.6
2023-04-16T02:40:32.037Z,7.6
2023-04-16T02:43:19.826Z,7.6
2023-04-16T02:46:07.628Z,7.6
2023-04-16T02:48:55.727Z,7.6
2023-04-16T02:51:43.532Z,7.6
2023-04-16T02:54:31.261Z,7.6
2023-04-16T02:57:18.898Z,7.6
2023-04-16T03:00:06.665Z,7.6
2023-04-16T03:02:54.574Z,7.6
2023-04-16T03:05:42.847Z,7.6
2023-04-16T03:08:30.646Z,7.6
2023-04-16T03:11:18.538Z,7.6
2023-04-16T03:14:06.270Z,7.6
2023-04-16T03:16:53.943Z,7.6
2023-04-16T03:19:41.614Z,7.6
2023-04-16T03:22:29.530Z,7.6
2023-04-16T03:25:17.194Z,7.6
2023-04-16T03:28:04.971Z,7.6
2023-04-16T03:30:52.580Z,7.6
2023-04-16T03:33:40.436Z,7.6
2023-04-16T03:36:28.122Z,7.6
2023-04-16T03:39:15.892Z,7.6
2023-04-16T03:42:03.446Z,7.6
2023-04-16T03:44:51.419Z,7.6
2023-04-16T03:47:39.228Z,7.7
2023-04-16T03:50:26.999Z,7.7
2023-04-16T03:53:14.608Z,7.7
2023-04-16T03:56:02.237Z,7.8
2023-04-16T03:58:50.072Z,7.8
2023-04-16T04:01:37.826Z,7.8
2023-04-16T04:04:25.894Z,7.8
2023-04-16T04:07:13.987Z,7.8
2023-04-16T04:10:01.706Z,7.8
2023-04-16T04:12:49.731Z,7.8
2023-04-16T04:15:37.490Z,7.8
2023-04-16T04:18:25.125Z,7.8
2023-04-16T04:21:12.900Z,7.8
2023-04-16T04:24:00.686Z,7.8
2023-04-16T04:26:48.284Z,7.8
2023-04-16T04:29:36.378Z,7.8
2023-04-16T04:32:24.280Z,7.8
2023-04-16T04:35:12.186Z,7.8
2023-04-16T04:37:59.845Z,7.8
2023-04-16T04:40:47.589Z,7.8
2023-04-16T04:43:35.323Z,7.8
2023-04-16T04:46:23.261Z,7.8
2023-04-16T04:49:11.308Z,7.9
2023-04-16T04:51:59.487Z,7.9
2023-04-16T04:54:47.220Z,7.9
2023-04-16T04:57:34.900Z,7.9
2023-04-16T05:00:22.586Z,8
2023-04-16T05:03:10.723Z,8
2023-04-16T05:05:58.618Z,8
2023-04-16T05:08:46.369Z,7.9
2023-04-16T05:11:34.032Z,8
2023-04-16T05:14:21.856Z,7.9
2023-04-16T05:17:09.524Z,7.9
2023-04-16T05:19:57.302Z,7.9
2023-04-16T05:22:45.115Z,7.9
2023-04-16T05:25:32.795Z,7.9
2023-04-16T05:28:20.415Z,7.9
2023-04-16T05:31:08.387Z,7.9
2023-04-16T05:33:56.289Z,8
2023-04-16T05:36:44.147Z,7.9
2023-04-16T05:39:31.853Z,8
2023-04-16T05:42:19.635Z,8
2023-04-16T05:45:07.321Z,8
2023-04-16T05:47:55.196Z,8
2023-04-16T05:50:42.994Z,8
2023-04-16T05:53:30.994Z,8
2023-04-16T05:56:18.755Z,8
2023-04-16T05:59:06.485Z,8
2023-04-16T06:01:54.349Z,8
2023-04-16T06:04:42.305Z,8
2023-04-16T06:07:30.003Z,8
2023-04-16T06:10:17.802Z,8
2023-04-16T06:13:05.542Z,8
2023-04-16T06:15:53.215Z,8.1
2023-04-16T06:18:41.018Z,8.1
2023-04-16T06:21:28.665Z,8.1
2023-04-16T06:24:16.432Z,8.2
2023-04-16T06:27:04.218Z,8.2
2023-04-16T06:30:05.163Z,8.2
2023-04-16T06:32:52.903Z,8.2
2023-04-16T06:35:40.673Z,8.3
2023-04-16T06:38:28.510Z,8.3
2023-04-16T06:41:16.172Z,8.3
2023-04-16T06:44:03.939Z,8.3
2023-04-16T06:46:51.823Z,8.3
2023-04-16T06:49:40.011Z,8.4
2023-04-16T06:52:27.680Z,8.4
2023-04-16T06:55:15.412Z,8.4
2023-04-16T06:58:05.725Z,8.4
2023-04-16T07:00:53.484Z,8.4
2023-04-16T07:03:41.565Z,8.4
2023-04-16T07:06:29.876Z,8.5
2023-04-16T07:09:17.552Z,8.5
2023-04-16T07:12:05.396Z,8.5
2023-04-16T07:14:52.997Z,8.5
2023-04-16T07:17:40.859Z,8.6
2023-04-16T07:20:28.599Z,8.6
2023-04-16T07:23:16.366Z,8.6
2023-04-16T07:26:04.158Z,8.6
2023-04-16T07:28:51.992Z,8.8
2023-04-16T07:31:39.727Z,8.9
2023-04-16T07:34:27.624Z,9
2023-04-16T07:37:15.381Z,9.1
2023-04-16T07:40:03.108Z,9.2
2023-04-16T07:42:50.903Z,9.3
2023-04-16T07:45:38.695Z,9.4
2023-04-16T07:48:28.002Z,9.5
2023-04-16T07:51:15.706Z,9.6
2023-04-16T07:54:03.520Z,9.7
2023-04-16T07:56:51.400Z,9.8
2023-04-16T07:59:50.910Z,9.9
2023-04-16T08:02:38.795Z,10
2023-04-16T08:05:26.964Z,10.1
2023-04-16T08:08:15.208Z,10.2
2023-04-16T08:11:02.964Z,10.3
2023-04-16T08:13:50.634Z,10.4
2023-04-16T08:16:38.378Z,10.4
2023-04-16T08:19:26.110Z,10.5
2023-04-16T08:22:13.842Z,10.6
2023-04-16T08:25:01.568Z,10.7
2023-04-16T08:27:49.513Z,10.7
2023-04-16T08:30:37.247Z,10.9
2023-04-16T08:33:25.135Z,11.1
2023-04-16T08:36:12.916Z,11.2
2023-04-16T08:39:00.650Z,11.3
2023-04-16T08:41:48.708Z,11.4
2023-04-16T08:44:36.666Z,11.4
2023-04-16T08:47:24.614Z,11.4
2023-04-16T08:50:12.500Z,11.4
2023-04-16T08:53:00.432Z,11.5
2023-04-16T08:55:48.680Z,11.7
2023-04-16T08:58:36.477Z,11.8
2023-04-16T09:01:24.264Z,11.8
2023-04-16T09:04:12.535Z,11.7
2023-04-16T09:07:00.574Z,11.8
2023-04-16T09:09:48.307Z,11.8
2023-04-16T09:12:35.989Z,11.9
2023-04-16T09:15:23.803Z,11.9
2023-04-16T09:18:11.554Z,11.9
2023-04-16T09:20:59.292Z,11.9
2023-04-16T09:23:46.868Z,11.8
2023-04-16T09:26:34.696Z,11.8
2023-04-16T09:29:22.429Z,11.9
2023-04-16T09:32:10.422Z,11.9
2023-04-16T09:34:58.503Z,12
2023-04-16T09:37:46.172Z,12.2
2023-04-16T09:40:33.652Z,12.5
2023-04-16T09:43:21.396Z,12.6
2023-04-16T09:46:09.087Z,12.8
2023-04-16T09:48:56.925Z,12.8
2023-04-16T09:51:44.665Z,12.9
2023-04-16T09:54:32.693Z,13
2023-04-16T09:57:20.519Z,13.3
2023-04-16T10:00:08.200Z,13.7
2023-04-16T10:05:44.003Z,14.9
2023-04-16T10:08:31.857Z,15
2023-04-16T10:11:19.768Z,14.9
2023-04-16T10:14:07.475Z,14.8
2023-04-16T10:16:55.431Z,14.7
2023-04-16T10:19:43.302Z,14.6
2023-04-16T10:22:31.217Z,14.5
2023-04-16T10:25:18.967Z,14.4
2023-04-16T10:28:06.660Z,14.4
2023-04-16T10:30:54.466Z,14.5
2023-04-16T10:33:42.366Z,14.7
2023-04-16T10:36:35.890Z,14.9
2023-04-16T10:39:23.684Z,15
2023-04-16T10:42:11.498Z,15.4
2023-04-16T10:44:59.277Z,15.6
2023-04-16T10:47:47.078Z,15.8
2023-04-16T10:50:34.917Z,15.8
2023-04-16T10:53:22.635Z,15.8
2023-04-16T10:56:10.488Z,15.9
2023-04-16T10:58:58.244Z,15.8
2023-04-16T11:01:45.997Z,15.8
2023-04-16T11:04:34.122Z,16
2023-04-16T11:07:22.472Z,16.2
2023-04-16T11:10:10.095Z,17
2023-04-16T11:12:57.853Z,17.4
2023-04-16T11:15:45.688Z,17.2
2023-04-16T11:18:33.486Z,16.9
2023-04-16T11:21:21.227Z,16.8
2023-04-16T11:24:08.806Z,16.6
2023-04-16T11:26:56.488Z,16.6
2023-04-16T11:29:46.393Z,16.8
2023-04-16T11:32:35.352Z,16.8
2023-04-16T11:35:23.218Z,16.9
2023-04-16T11:38:10.791Z,16.9
2023-04-16T11:40:58.476Z,16.8
2023-04-16T11:43:46.134Z,16.8
2023-04-16T11:46:48.454Z,16.6
2023-04-16T11:49:36.496Z,16.4
2023-04-16T11:52:24.136Z,16.1
2023-04-16T11:55:11.882Z,16
2023-04-16T11:57:59.609Z,16.2
2023-04-16T12:00:51.280Z,16.6
2023-04-16T12:03:39.466Z,16.9
2023-04-16T12:06:27.922Z,17
2023-04-16T12:09:15.665Z,17
2023-04-16T12:12:03.241Z,17
2023-04-16T12:14:50.970Z,16.7
2023-04-16T12:17:38.911Z,16.4
2023-04-16T12:20:26.956Z,16.2
2023-04-16T12:23:14.675Z,16.3
2023-04-16T12:26:02.750Z,17
2023-04-16T12:28:50.707Z,17.9
2023-04-16T12:31:38.460Z,18.5
2023-04-16T12:34:29.127Z,18.8
2023-04-16T12:37:37.324Z,19.1
2023-04-16T12:40:25.039Z,19.2
2023-04-16T12:43:12.657Z,19
2023-04-16T12:46:01.204Z,18.7
2023-04-16T12:48:51.917Z,18.5
2023-04-16T12:51:39.607Z,18.3
2023-04-16T12:54:27.317Z,18.1
2023-04-16T12:57:15.058Z,17.8
2023-04-16T13:00:02.685Z,17.5
2023-04-16T13:02:50.680Z,17.2
2023-04-16T13:05:38.774Z,17
2023-04-16T13:08:26.276Z,16.8
2023-04-16T13:11:13.950Z,16.8
2023-04-16T13:14:01.657Z,16.8
2023-04-16T13:16:49.544Z,16.8
2023-04-16T13:19:37.512Z,16.8
2023-04-16T13:22:25.266Z,16.7
2023-04-16T13:25:12.907Z,16.6
2023-04-16T13:28:00.773Z,16.5
2023-04-16T13:30:48.517Z,16.4
2023-04-16T13:33:36.463Z,16.3
2023-04-16T13:36:25.637Z,16.3
2023-04-16T13:39:15.599Z,16.4
2023-04-16T13:42:03.281Z,16.4
2023-04-16T13:44:51.153Z,16.4
2023-04-16T13:47:38.821Z,16.3
2023-04-16T13:50:26.660Z,16.3
2023-04-16T13:53:14.311Z,16.3
2023-04-16T13:56:02.039Z,16.4
2023-04-16T13:58:49.672Z,16.4
2023-04-16T14:01:37.629Z,16.4
2023-04-16T14:04:25.455Z,16.4
2023-04-16T14:07:13.319Z,16.5
2023-04-16T14:10:00.909Z,16.6
2023-04-16T14:12:48.581Z,16.7
2023-04-16T14:15:36.159Z,16.7
2023-04-16T14:18:23.972Z,16.7
2023-04-16T14:21:11.676Z,16.7
2023-04-16T14:23:59.405Z,16.7
2023-04-16T14:26:46.903Z,16.5
2023-04-16T14:29:34.733Z,16.5
2023-04-16T14:32:22.539Z,16.4
2023-04-16T14:35:10.444Z,16.4
2023-04-16T14:37:58.218Z,16.2
2023-04-16T14:40:46.060Z,16.1
2023-04-16T14:43:33.786Z,16
2023-04-16T14:46:21.673Z,16
2023-04-16T14:49:12.069Z,16
2023-04-16T14:52:00.300Z,16.1
2023-04-16T14:54:47.936Z,16.3
2023-04-16T14:57:35.721Z,16.7
2023-04-16T15:00:23.403Z,16.9
2023-04-16T15:03:11.403Z,16.8
2023-04-16T15:05:59.414Z,16.6
2023-04-16T15:08:47.254Z,16.4
2023-04-16T15:11:34.947Z,16
2023-04-16T15:14:22.653Z,15.7
2023-04-16T15:17:10.498Z,15.4
2023-04-16T15:19:58.397Z,15.1
2023-04-16T15:22:45.927Z,14.9
2023-04-16T15:25:33.893Z,14.7
2023-04-16T15:28:21.648Z,14.6
2023-04-16T15:31:09.268Z,14.5
2023-04-16T15:33:57.115Z,14.4
2023-04-16T15:36:47.099Z,14.3
2023-04-16T15:39:34.678Z,14.3
2023-04-16T15:42:29.799Z,14.3
2023-04-16T15:45:17.357Z,14.3
2023-04-16T15:48:07.149Z,14.3
2023-04-16T15:50:54.873Z,14.3
2023-04-16T15:53:42.708Z,14.2
2023-04-16T15:56:30.212Z,14.1
2023-04-16T15:59:18.152Z,14
2023-04-16T16:02:06.023Z,13.7
2023-04-16T16:04:54.236Z,13.5
2023-04-16T16:07:41.985Z,13.3
2023-04-16T16:10:30.030Z,13.1
2023-04-16T16:13:17.683Z,13.1
2023-04-16T16:16:05.590Z,13
2023-04-16T16:18:53.259Z,12.9
2023-04-16T16:21:41.024Z,12.9
2023-04-16T16:24:28.627Z,12.8
2023-04-16T16:27:16.366Z,12.7
2023-04-16T16:30:04.055Z,12.6
2023-04-16T16:32:52.067Z,12.5
2023-04-16T16:35:39.759Z,12.5
2023-04-16T16:38:27.446Z,12.5
2023-04-16T16:41:15.039Z,12.5
2023-04-16T16:44:02.858Z,12.5
2023-04-16T16:46:50.662Z,12.4
2023-04-16T16:49:39.158Z,12.3
2023-04-16T16:52:26.952Z,12.3
2023-04-16T16:55:15.074Z,12.2
2023-04-16T16:58:05.145Z,12.2
2023-04-16T17:00:52.920Z,12.1
2023-04-16T17:03:41.088Z,12
2023-04-16T17:06:29.320Z,11.9
2023-04-16T17:09:17.309Z,11.7
2023-04-16T17:12:05.144Z,11.5
2023-04-16T17:14:52.781Z,11.5
2023-04-16T17:17:40.517Z,11.4
2023-04-16T17:20:29.545Z,11.2
2023-04-16T17:23:17.291Z,11.2
2023-04-16T17:26:05.030Z,11.1
2023-04-16T17:28:52.864Z,11.1
2023-04-16T17:31:40.828Z,11.1
2023-04-16T17:34:28.800Z,11.1
2023-04-16T17:37:16.535Z,11.2
2023-04-16T17:40:04.384Z,11.1
2023-04-16T17:42:52.092Z,11.2
2023-04-16T17:45:39.829Z,11.2
2023-04-16T17:48:27.703Z,11.2
2023-04-16T17:51:15.547Z,11.1
2023-04-16T17:54:03.220Z,11.1
2023-04-16T17:56:51.010Z,11.1
2023-04-16T17:59:38.634Z,11.1
2023-04-16T18:02:26.724Z,11.1
2023-04-16T18:05:15.228Z,11.1
2023-04-16T18:08:02.946Z,11.1
2023-04-16T18:10:50.684Z,11
2023-04-16T18:13:38.497Z,11
2023-04-16T18:16:26.515Z,11
2023-04-16T18:19:14.443Z,11
2023-04-16T18:22:02.172Z,11
2023-04-16T18:24:50.062Z,11
2023-04-16T18:27:38.156Z,10.9
2023-04-16T18:30:26.780Z,10.9
2023-04-16T18:33:49.750Z,10.9
2023-04-16T18:36:45.941Z,10.9
2023-04-16T18:39:33.585Z,10.8
2023-04-16T18:42:21.433Z,10.8
2023-04-16T18:45:09.893Z,10.8
2023-04-16T18:47:57.907Z,10.8
2023-04-16T18:50:45.879Z,10.8
2023-04-16T18:53:33.663Z,10.7
2023-04-16T18:56:21.262Z,10.7
2023-04-16T18:59:09.088Z,10.7
2023-04-16T19:01:57.508Z,10.7
2023-04-16T19:04:45.632Z,10.7
2023-04-16T19:07:33.301Z,10.6
2023-04-16T19:10:21.088Z,10.6
2023-04-16T19:13:08.716Z,10.6
2023-04-16T19:15:59.759Z,10.5
2023-04-16T19:18:47.656Z,10.5
2023-04-16T19:21:35.740Z,10.5
2023-04-16T19:24:23.565Z,10.5
2023-04-16T19:27:11.409Z,10.4
2023-04-16T19:29:59.091Z,10.4
2023-04-16T19:32:46.808Z,10.4
2023-04-16T19:35:34.575Z,10.4
2023-04-16T19:38:22.364Z,10.3
2023-04-16T19:41:10.233Z,10.3
2023-04-16T19:43:59.192Z,10.3
2023-04-16T19:46:47.072Z,10.3
2023-04-16T19:49:34.916Z,10.3
2023-04-16T19:52:22.795Z,10.2
2023-04-16T19:55:10.590Z,10.2
2023-04-16T19:57:58.361Z,10.2
2023-04-16T20:00:46.299Z,10.2
2023-04-16T20:03:34.195Z,10.2
2023-04-16T20:06:22.222Z,10.2
2023-04-16T20:09:10.179Z,10.2
2023-04-16T20:11:58.327Z,10.2
2023-04-16T20:14:46.084Z,10.2
2023-04-16T20:17:34.065Z,10.2
2023-04-16T20:20:21.840Z,10.2
2023-04-16T20:23:09.639Z,10.2
2023-04-16T20:25:57.287Z,10.1
2023-04-16T20:28:45.057Z,10.1
2023-04-16T20:31:41.944Z,10.1
2023-04-16T20:34:33.572Z,10
2023-04-16T20:37:21.195Z,10
2023-04-16T20:40:08.959Z,10
2023-04-16T20:42:56.744Z,10
2023-04-16T20:45:44.678Z,9.9
2023-04-16T20:48:32.481Z,9.9
2023-04-16T20:51:20.266Z,9.8
2023-04-16T20:54:08.004Z,9.8
2023-04-16T20:56:55.783Z,9.8
2023-04-16T20:59:43.464Z,9.7
2023-04-16T21:02:31.827Z,9.7
2023-04-16T21:05:22.312Z,9.7
2023-04-16T21:08:10.089Z,9.7
2023-04-16T21:10:58.026Z,9.7
2023-04-16T21:13:45.799Z,9.7
2023-04-16T21:16:33.579Z,9.7
2023-04-16T21:19:21.628Z,9.6
2023-04-16T21:22:09.419Z,9.6
2023-04-16T21:24:57.302Z,9.6
2023-04-16T21:27:45.036Z,9.6
2023-04-16T21:30:32.872Z,9.6
2023-04-16T21:33:20.735Z,9.6
2023-04-16T21:36:08.568Z,9.6
2023-04-16T21:38:56.326Z,9.5
2023-04-16T21:41:44.106Z,9.5
2023-04-16T21:44:31.817Z,9.6
2023-04-16T21:47:19.789Z,9.5
2023-04-16T21:50:07.558Z,9.5
2023-04-16T21:52:55.468Z,9.5
2023-04-16T21:55:43.176Z,9.5
2023-04-16T21:58:30.960Z,9.5
2023-04-16T22:01:18.606Z,9.4
2023-04-16T22:04:06.873Z,9.4
2023-04-16T22:06:54.779Z,9.4
2023-04-16T22:09:42.777Z,9.4
2023-04-16T22:12:30.397Z,9.4
2023-04-16T22:15:30.252Z,9.4
2023-04-16T22:18:17.928Z,9.4
2023-04-16T22:21:05.610Z,9.4
2023-04-16T22:23:53.188Z,9.4
2023-04-16T22:26:41.169Z,9.4
2023-04-16T22:29:28.961Z,9.4
2023-04-16T22:32:16.966Z,9.4
2023-04-16T22:35:05.144Z,9.4
2023-04-16T22:37:52.923Z,9.4
2023-04-16T22:40:40.860Z,9.4
2023-04-16T22:43:28.715Z,9.4
2023-04-16T22:46:16.501Z,9.5
2023-04-16T22:49:04.291Z,9.4
2023-04-16T22:51:52.103Z,9.5
2023-04-16T22:54:42.177Z,9.5
2023-04-16T22:57:29.761Z,9.5
2023-04-16T23:00:17.424Z,9.5
2023-04-16T23:03:05.574Z,9.5
2023-04-16T23:05:53.788Z,9.5
2023-04-16T23:08:41.507Z,9.5
2023-04-16T23:11:29.341Z,9.5
2023-04-16T23:14:17.034Z,9.5
2023-04-16T23:17:04.887Z,9.5
2023-04-16T23:19:52.591Z,9.5
2023-04-16T23:22:40.376Z,9.5
2023-04-16T23:25:28.001Z,9.5
2023-04-16T23:28:15.737Z,9.5
2023-04-16T23:31:04.732Z,9.5
2023-04-16T23:33:55.062Z,9.5
2023-04-16T23:36:42.738Z,9.5
2023-04-16T23:39:30.601Z,9.5
2023-04-16T23:42:18.440Z,9.5
2023-04-16T23:45:06.210Z,9.5
2023-04-16T23:47:54.027Z,9.5
2023-04-16T23:50:41.968Z,9.5
2023-04-16T23:53:29.726Z,9.4
2023-04-16T23:56:17.406Z,9.4
2023-04-16T23:59:04.979Z,9.4
